Time;durP1;ratioP1;P1;durP2;ratioP2;P2;SDS_P1;SDS_P2;PMS_P1;PMS_P2;Temp;Humidity;BMP_temperature;BMP_pressure;BME280_temperature;BME280_humidity;BME280_pressure;Samples;Min_cycle;Max_cycle;Signal;HPM_P1;HPM_P2
2023/10/01 00:01:53;;;;;;;17.70;12.50;;;;;;;14.47;100.00;102211.78;5111351;28;20044;-54
2023/10/01 00:04:21;;;;;;;17.83;11.85;;;;;;;14.39;100.00;102211.38;5108366;28;20040;-52
2023/10/01 00:06:52;;;;;;;22.88;12.35;;;;;;;14.34;100.00;102228.38;5108102;28;20063;-55
2023/10/01 00:09:21;;;;;;;19.10;11.63;;;;;;;14.36;100.00;102242.38;5108465;28;20052;-52
2023/10/01 00:11:52;;;;;;;15.98;11.43;;;;;;;14.37;100.00;102248.53;5109375;28;20048;-54
2023/10/01 00:14:21;;;;;;;17.98;12.07;;;;;;;14.46;100.00;102247.13;5111560;28;20457;-54
2023/10/01 00:16:56;;;;;;;18.75;11.90;;;;;;;14.36;100.00;102247.66;5110268;28;20044;-54
2023/10/01 00:19:25;;;;;;;19.25;11.75;;;;;;;14.33;100.00;102247.84;5110138;28;20044;-53
2023/10/01 00:21:53;;;;;;;20.13;11.55;;;;;;;14.15;100.00;102241.84;5108547;28;20071;-54
2023/10/01 00:24:22;;;;;;;17.42;11.18;;;;;;;14.18;100.00;102236.38;5111026;28;20063;-54
2023/10/01 00:26:50;;;;;;;16.80;11.25;;;;;;;14.13;100.00;102245.50;5110247;28;20047;-53
2023/10/01 00:29:19;;;;;;;17.92;11.60;;;;;;;14.11;100.00;102235.03;5111556;28;20055;-53
2023/10/01 00:31:47;;;;;;;18.35;12.02;;;;;;;14.09;100.00;102234.25;5111619;28;20555;-53
2023/10/01 00:34:17;;;;;;;17.55;11.30;;;;;;;14.16;100.00;102232.09;5111541;28;20539;-53
2023/10/01 00:36:45;;;;;;;18.35;10.80;;;;;;;14.11;100.00;102236.81;5111553;28;20047;-54
2023/10/01 00:39:13;;;;;;;16.58;11.13;;;;;;;14.13;100.00;102241.06;5114207;28;20047;-53
2023/10/01 00:41:42;;;;;;;18.50;11.23;;;;;;;14.11;100.00;102239.44;5110961;28;20097;-53
2023/10/01 00:44:10;;;;;;;16.42;10.40;;;;;;;14.14;100.00;102226.91;5111803;28;20055;-53
2023/10/01 00:46:38;;;;;;;19.75;10.32;;;;;;;14.08;100.00;102232.53;5113400;28;20048;-54
2023/10/01 00:49:08;;;;;;;16.85;10.93;;;;;;;14.07;100.00;102225.56;5115100;28;20056;-54
2023/10/01 00:51:38;;;;;;;16.85;10.43;;;;;;;14.11;100.00;102228.88;5114953;28;20050;-53
2023/10/01 00:54:10;;;;;;;17.00;10.55;;;;;;;14.01;100.00;102218.81;5114929;28;20048;-52
2023/10/01 00:56:42;;;;;;;18.17;11.00;;;;;;;14.01;100.00;102215.31;5114864;28;20052;-55
2023/10/01 00:59:11;;;;;;;14.95;9.98;;;;;;;13.88;100.00;102199.34;5113165;28;20135;-53
2023/10/01 01:01:41;;;;;;;20.65;11.05;;;;;;;13.94;100.00;102198.97;5111528;28;20058;-54
2023/10/01 01:04:18;;;;;;;14.73;10.38;;;;;;;13.86;100.00;102195.91;5113942;28;20058;-53
2023/10/01 01:06:49;;;;;;;16.30;10.82;;;;;;;13.79;100.00;102189.28;5114905;28;20105;-53
2023/10/01 01:09:20;;;;;;;17.38;10.52;;;;;;;13.81;100.00;102190.03;5114711;28;20532;-52
2023/10/01 01:11:50;;;;;;;16.08;9.80;;;;;;;13.79;100.00;102189.28;5114551;28;20027;-53
2023/10/01 01:14:18;;;;;;;16.83;10.75;;;;;;;13.78;100.00;102187.56;5114713;28;20505;-54
2023/10/01 01:16:48;;;;;;;15.85;10.40;;;;;;;13.73;100.00;102189.63;5114524;28;20383;-53
2023/10/01 01:19:19;;;;;;;14.55;9.75;;;;;;;13.75;100.00;102187.75;5114494;28;20498;-51
2023/10/01 01:21:50;;;;;;;17.00;10.48;;;;;;;13.73;100.00;102189.63;5114512;28;20363;-52
2023/10/01 01:24:20;;;;;;;16.35;9.18;;;;;;;13.74;100.00;102192.16;5113283;28;20688;-54
2023/10/01 01:26:51;;;;;;;15.13;10.05;;;;;;;13.74;100.00;102186.88;5114655;28;20048;-54
2023/10/01 01:29:29;;;;;;;14.68;9.70;;;;;;;13.74;100.00;102191.31;5114295;27;20507;-53
2023/10/01 01:32:07;;;;;;;13.77;9.55;;;;;;;13.67;100.00;102190.81;5114128;28;20048;-53
2023/10/01 01:34:36;;;;;;;15.55;9.73;;;;;;;13.65;100.00;102188.28;5114240;28;20055;-52
2023/10/01 01:37:06;;;;;;;16.95;10.18;;;;;;;13.61;100.00;102183.25;5114156;28;20047;-53
2023/10/01 01:39:45;;;;;;;14.93;9.60;;;;;;;13.62;100.00;102180.53;5114062;28;20512;-53
2023/10/01 01:42:15;;;;;;;15.40;9.77;;;;;;;13.57;100.00;102190.50;5113948;27;20052;-53
2023/10/01 01:44:43;;;;;;;15.82;10.00;;;;;;;13.64;100.00;102197.13;5112116;28;20394;-52
2023/10/01 01:47:15;;;;;;;18.17;10.20;;;;;;;13.61;100.00;102185.91;5109942;28;20051;-53
2023/10/01 01:49:44;;;;;;;14.77;9.88;;;;;;;13.55;100.00;102178.31;5111765;28;20055;-52
2023/10/01 01:52:12;;;;;;;17.65;9.75;;;;;;;13.53;100.00;102178.41;5113840;28;20100;-51
2023/10/01 01:54:41;;;;;;;15.55;9.82;;;;;;;13.49;100.00;102171.59;5113864;28;20074;-55
2023/10/01 01:57:13;;;;;;;16.60;10.50;;;;;;;13.53;100.00;102167.81;5113871;27;20062;-54
2023/10/01 01:59:43;;;;;;;17.10;10.40;;;;;;;13.58;100.00;102163.13;5112114;28;20109;-52
2023/10/01 02:02:11;;;;;;;15.23;9.63;;;;;;;13.53;100.00;102162.53;5113476;28;20036;-52
2023/10/01 02:04:58;;;;;;;15.63;9.70;;;;;;;13.50;100.00;102160.91;5111018;28;20053;-53
2023/10/01 02:07:28;;;;;;;14.02;9.00;;;;;;;13.49;100.00;102159.19;5111262;28;20391;-53
2023/10/01 02:09:58;;;;;;;15.02;9.48;;;;;;;13.45;100.00;102151.56;5113593;28;20131;-54
2023/10/01 02:12:30;;;;;;;15.80;9.63;;;;;;;13.46;100.00;102150.63;5112021;28;20043;-52
2023/10/01 02:14:58;;;;;;;16.35;9.75;;;;;;;13.45;100.00;102144.47;5113123;28;20047;-54
2023/10/01 02:17:29;;;;;;;13.90;9.07;;;;;;;13.46;100.00;102155.91;5113122;28;20085;-54
2023/10/01 02:19:58;;;;;;;17.33;10.15;;;;;;;13.46;100.00;102150.63;5110636;28;20075;-55
2023/10/01 02:22:31;;;;;;;15.68;9.18;;;;;;;13.53;100.00;102162.53;5108787;28;20067;-54
2023/10/01 02:25:02;;;;;;;16.27;9.63;;;;;;;13.58;100.00;102155.19;5111856;28;20075;-54
2023/10/01 02:27:42;;;;;;;16.13;8.85;;;;;;;13.57;100.00;102152.66;5113466;27;20460;-54
2023/10/01 02:30:16;;;;;;;19.27;9.88;;;;;;;13.59;100.00;102163.97;5113227;28;20032;-54
2023/10/01 02:35:34;;;;;;;14.23;8.50;;;;;;;13.62;100.00;102155.88;5112426;28;20043;-52
2023/10/01 02:38:04;;;;;;;17.55;9.02;;;;;;;13.69;100.00;102160.72;5112761;28;20101;-53
2023/10/01 02:40:37;;;;;;;15.30;9.05;;;;;;;13.69;100.00;102158.06;5112752;28;20490;-53
2023/10/01 02:43:12;;;;;;;14.98;8.20;;;;;;;13.73;100.00;102158.75;5112468;27;20163;-53
2023/10/01 02:45:41;;;;;;;14.02;8.15;;;;;;;13.78;100.00;102161.13;5112305;28;20059;-53
2023/10/01 02:48:17;;;;;;;16.63;8.27;;;;;;;13.75;100.00;102156.03;5112670;28;20100;-56
2023/10/01 02:50:51;;;;;;;14.65;8.13;;;;;;;13.72;100.00;102154.41;5111489;28;20043;-53
2023/10/01 02:53:22;;;;;;;12.85;7.63;;;;;;;13.74;100.00;102154.31;5111708;28;20040;-52
2023/10/01 02:55:52;;;;;;;15.65;7.75;;;;;;;13.73;100.00;102148.19;5108216;28;20418;-53
2023/10/01 02:58:27;;;;;;;13.55;7.25;;;;;;;13.77;100.00;102154.13;5110974;28;20402;-52
2023/10/01 03:00:55;;;;;;;13.07;7.40;;;;;;;13.78;100.00;102145.25;5112165;28;20052;-54
2023/10/01 03:03:32;;;;;;;13.15;7.47;;;;;;;13.80;100.00;102151.34;5111252;28;20039;-53
2023/10/01 03:06:08;;;;;;;14.85;7.35;;;;;;;13.80;100.00;102143.41;5112563;28;20035;-51
2023/10/01 03:11:26;;;;;;;15.73;7.15;;;;;;;13.84;100.00;102134.34;5112260;28;20039;-53
2023/10/01 03:13:56;;;;;;;11.60;6.15;;;;;;;13.84;100.00;102129.06;5112375;28;20395;-54
2023/10/01 03:16:42;;;;;;;13.55;6.93;;;;;;;13.86;100.00;102133.31;5112467;28;20051;-53
2023/10/01 03:19:18;;;;;;;14.52;6.95;;;;;;;13.93;100.00;102131.13;5112140;28;20061;-52
2023/10/01 03:24:38;;;;;;;11.32;6.28;;;;;;;13.93;100.00;102132.94;5112199;28;20047;-53
2023/10/01 03:27:19;;;;;;;13.13;6.07;;;;;;;13.95;100.00;102142.50;5110980;28;20055;-53
2023/10/01 03:29:54;;;;;;;11.77;6.00;;;;;;;13.95;100.00;102139.00;5110796;28;20088;-52
2023/10/01 03:32:29;;;;;;;12.50;6.05;;;;;;;13.92;100.00;102139.16;5112024;28;20550;-53
2023/10/01 03:35:03;;;;;;;11.75;5.68;;;;;;;13.91;100.00;102134.84;5112006;28;20053;-52
2023/10/01 03:37:38;;;;;;;15.40;5.95;;;;;;;13.94;100.00;102135.50;5110737;28;20112;-52
2023/10/01 03:40:18;;;;;;;13.20;6.18;;;;;;;13.92;100.00;102129.47;5111971;28;20503;-52
2023/10/01 03:42:51;;;;;;;12.50;5.30;;;;;;;13.93;100.00;102127.66;5111743;28;20048;-54
2023/10/01 03:45:37;;;;;;;12.75;5.10;;;;;;;13.93;100.00;102125.84;5108731;28;20056;-54
2023/10/01 03:48:19;;;;;;;11.70;5.75;;;;;;;13.95;100.00;102131.06;5108736;28;20044;-54
2023/10/01 03:50:47;;;;;;;13.88;5.70;;;;;;;13.96;100.00;102127.47;5108811;28;20483;-53
2023/10/01 03:53:18;;;;;;;11.52;5.22;;;;;;;13.98;100.00;102134.38;5108712;28;20040;-54
2023/10/01 03:55:53;;;;;;;12.02;5.45;;;;;;;13.96;100.00;102133.63;5106648;28;20499;-52
2023/10/01 03:58:27;;;;;;;12.02;5.28;;;;;;;13.95;100.00;102129.25;5107720;28;20054;-55
2023/10/01 04:00:59;;;;;;;11.55;5.10;;;;;;;13.96;100.00;102130.97;5110070;28;20052;-52
2023/10/01 04:03:38;;;;;;;11.38;5.53;;;;;;;14.00;100.00;102134.28;5111906;28;20075;-55
2023/10/01 04:06:07;;;;;;;11.13;4.60;;;;;;;14.01;100.00;102131.53;5110404;28;20052;-55
2023/10/01 04:08:39;;;;;;;12.25;5.07;;;;;;;14.01;100.00;102136.81;5111581;28;20052;-53
2023/10/01 04:11:11;;;;;;;13.32;5.82;;;;;;;14.03;100.00;102142.88;5111835;28;20044;-54
2023/10/01 04:13:42;;;;;;;12.63;4.90;;;;;;;14.06;100.00;102143.63;5114276;28;20371;-53
2023/10/01 04:16:15;;;;;;;10.73;5.07;;;;;;;14.08;100.00;102133.81;5115603;28;20055;-52
2023/10/01 04:18:43;;;;;;;11.27;4.90;;;;;;;14.08;100.00;102137.31;5113909;28;20048;-52
2023/10/01 04:21:25;;;;;;;13.38;5.10;;;;;;;14.08;100.00;102137.31;5115150;28;20070;-53
2023/10/01 04:23:54;;;;;;;10.10;4.82;;;;;;;14.11;100.00;102138.94;5115512;28;20389;-56
2023/10/01 04:26:23;;;;;;;11.27;4.82;;;;;;;14.13;100.00;102135.25;5110829;28;20047;-52
2023/10/01 04:28:54;;;;;;;12.30;5.15;;;;;;;14.12;100.00;102135.34;5112926;28;20567;-52
2023/10/01 04:34:10;;;;;;;12.93;5.00;;;;;;;14.18;100.00;102130.53;5115138;28;20044;-55
2023/10/01 04:36:39;;;;;;;;;;;;;;;14.13;100.00;102135.25;5115793;28;20093;-53
2023/10/01 04:39:07;;;;;;;11.18;5.03;;;;;;;14.14;100.00;102136.97;5115067;28;19962;-51
2023/10/01 04:41:37;;;;;;;10.48;4.57;;;;;;;14.20;100.00;102141.03;5112879;28;20831;-51
2023/10/01 04:44:07;;;;;;;13.50;4.75;;;;;;;14.19;100.00;102124.31;5111860;28;20083;-53
2023/10/01 04:46:37;;;;;;;12.95;4.90;;;;;;;14.17;100.00;102128.00;5112111;28;20051;-53
2023/10/01 04:49:26;;;;;;;10.77;4.38;;;;;;;14.19;100.00;102132.25;5114160;28;20048;-52
2023/10/01 04:52:10;;;;;;;10.82;4.75;;;;;;;14.19;100.00;102137.53;5115239;28;20055;-54
2023/10/01 04:54:44;;;;;;;12.13;5.38;;;;;;;14.32;100.00;102127.06;5113158;28;20105;-55
2023/10/01 04:57:13;;;;;;;11.93;4.88;;;;;;;14.30;100.00;102133.38;5110845;28;20035;-54
2023/10/01 04:59:56;;;;;;;14.20;5.47;;;;;;;14.31;100.00;102120.06;5113839;28;20120;-55
2023/10/01 05:02:29;;;;;;;12.63;5.30;;;;;;;14.33;100.00;102128.75;5114725;28;20130;-51
2023/10/01 05:05:09;;;;;;;13.38;5.40;;;;;;;14.31;100.00;102124.50;5114887;28;20132;-53
2023/10/01 05:07:39;;;;;;;12.40;4.88;;;;;;;14.27;100.00;102128.28;5115010;28;20048;-52
2023/10/01 05:10:08;;;;;;;13.77;5.85;;;;;;;14.30;100.00;102131.59;5110470;28;20055;-55
2023/10/01 05:12:43;;;;;;;12.68;4.82;;;;;;;14.32;100.00;102137.63;5111634;28;20047;-53
2023/10/01 05:15:24;;;;;;;12.32;5.35;;;;;;;14.37;100.00;102135.56;5110679;28;20046;-51
2023/10/01 05:17:55;;;;;;;17.13;6.47;;;;;;;14.39;100.00;102132.00;5110969;28;20387;-51
2023/10/01 05:20:26;;;;;;;12.30;5.25;;;;;;;14.38;100.00;102133.75;5110959;28;20135;-54
2023/10/01 05:22:58;;;;;;;14.25;6.30;;;;;;;14.42;100.00;102139.72;5111315;27;20506;-52
2023/10/01 05:25:27;;;;;;;14.57;6.65;;;;;;;14.40;100.00;102133.66;5112140;28;20394;-54
2023/10/01 05:27:56;;;;;;;13.45;5.93;;;;;;;14.41;100.00;102135.38;5110522;28;20490;-53
2023/10/01 05:30:43;;;;;;;14.63;5.82;;;;;;;14.40;100.00;102131.03;5110619;28;20444;-54
2023/10/01 05:33:12;;;;;;;12.32;4.90;;;;;;;14.41;100.00;102122.16;5110700;28;20043;-53
2023/10/01 05:35:44;;;;;;;13.80;6.00;;;;;;;14.43;100.00;102134.34;5114129;28;20051;-54
2023/10/01 05:38:14;;;;;;;12.95;5.90;;;;;;;14.43;100.00;102130.84;5114166;28;20108;-53
2023/10/01 05:40:44;;;;;;;13.25;5.55;;;;;;;14.41;100.00;102138.91;5114181;28;20051;-52
2023/10/01 05:43:13;;;;;;;13.15;5.70;;;;;;;14.45;100.00;102142.19;5113850;28;20062;-53
2023/10/01 05:45:47;;;;;;;13.18;5.38;;;;;;;14.42;100.00;102140.56;5113780;28;20040;-51
2023/10/01 05:48:19;;;;;;;12.45;5.53;;;;;;;14.39;100.00;102151.34;5110583;28;20100;-54
2023/10/01 05:50:48;;;;;;;14.13;6.65;;;;;;;14.40;100.00;102150.41;5111933;28;20397;-52
2023/10/01 05:53:18;;;;;;;11.90;5.15;;;;;;;14.41;100.00;102149.47;5114316;28;20036;-53
2023/10/01 05:55:47;;;;;;;13.05;5.30;;;;;;;14.40;100.00;102153.06;5114039;28;20117;-53
2023/10/01 05:58:16;;;;;;;14.25;6.97;;;;;;;14.47;100.00;102149.09;5113171;27;20058;-53
2023/10/01 06:00:57;;;;;;;13.95;6.32;;;;;;;14.46;100.00;102146.53;5113249;28;20122;-53
2023/10/01 06:03:30;;;;;;;13.23;5.97;;;;;;;14.41;100.00;102154.78;5113632;28;20527;-53
2023/10/01 06:05:59;;;;;;;12.90;6.28;;;;;;;14.41;100.00;102153.91;5113771;28;20519;-52
2023/10/01 06:08:32;;;;;;;14.07;6.32;;;;;;;14.41;100.00;102161.84;5113630;28;20044;-54
2023/10/01 06:11:05;;;;;;;13.77;6.47;;;;;;;14.40;100.00;102166.28;5113097;28;20097;-53
2023/10/01 06:13:37;;;;;;;12.70;6.20;;;;;;;14.34;100.00;102167.53;5108347;28;20109;-53
2023/10/01 06:16:14;;;;;;;13.32;6.55;;;;;;;14.35;100.00;102166.56;5112156;28;20515;-54
2023/10/01 06:18:49;;;;;;;12.68;6.32;;;;;;;14.41;100.00;102165.34;5113232;28;20039;-49
2023/10/01 06:21:19;;;;;;;13.00;5.78;;;;;;;14.44;100.00;102164.28;5112806;28;20131;-53
2023/10/01 06:23:51;;;;;;;12.50;6.05;;;;;;;14.44;100.00;102159.88;5113065;28;20474;-53
2023/10/01 06:26:20;;;;;;;14.15;6.15;;;;;;;14.51;100.00;102165.66;5113501;28;20400;-52
2023/10/01 06:28:50;;;;;;;12.82;6.45;;;;;;;14.57;100.00;102167.06;5113113;28;20050;-53
2023/10/01 06:31:20;;;;;;;15.20;6.15;;;;;;;14.59;100.00;102166.03;5110366;28;20093;-53
2023/10/01 06:33:53;;;;;;;12.57;6.65;;;;;;;14.65;100.00;102160.38;5109898;28;20070;-54
2023/10/01 06:36:23;;;;;;;15.32;5.97;;;;;;;14.70;100.00;102158.28;5112810;28;20092;-54
2023/10/01 06:38:53;;;;;;;14.52;6.28;;;;;;;14.67;100.00;102154.97;5113223;28;20050;-56
2023/10/01 06:41:28;;;;;;;14.50;5.82;;;;;;;14.70;100.00;102154.81;5113255;28;20051;-54
2023/10/01 06:43:57;;;;;;;11.70;5.32;;;;;;;14.75;100.00;102163.31;5109923;28;20553;-54
2023/10/01 06:46:28;;;;;;;14.00;5.65;;;;;;;14.78;100.00;102151.66;5109717;28;20744;-53
2023/10/01 06:48:58;;;;;;;11.50;6.22;;;;;;;14.82;100.00;102142.59;5112535;28;20075;-52
2023/10/01 06:51:37;;;;;;;15.13;6.20;;;;;;;14.89;100.00;102154.50;5110594;28;20044;-53
2023/10/01 06:54:06;;;;;;;15.10;6.07;;;;;;;14.96;100.00;102152.34;5107841;28;20435;-52
2023/10/01 06:56:35;;;;;;;14.82;5.75;;;;;;;14.98;100.00;102153.06;5106731;28;20059;-55
2023/10/01 06:59:14;;;;;;;13.75;6.38;;;;;;;14.98;100.00;102153.94;5112514;28;20040;-53
2023/10/01 07:01:48;;;;;;;15.18;6.03;;;;;;;15.09;100.00;102150.59;5110969;28;20052;-54
2023/10/01 07:04:17;;;;;;;13.95;6.47;;;;;;;15.14;100.00;102155.59;5107711;28;20051;-55
2023/10/01 07:06:50;;;;;;;12.80;5.68;;;;;;;15.21;100.00;102154.25;5109300;28;20049;-53
2023/10/01 07:09:28;;;;;;;12.32;6.35;;;;;;;15.29;100.00;102146.66;5112276;28;20047;-54
2023/10/01 07:11:58;;;;;;;13.60;6.03;;;;;;;15.37;100.00;102154.13;5112412;28;20044;-53
2023/10/01 07:14:43;;;;;;;14.10;6.45;;;;;;;15.41;100.00;102150.31;5112339;28;20035;-52
2023/10/01 07:17:15;;;;;;;14.85;6.03;;;;;;;15.57;100.00;102150.19;5110880;28;20463;-54
2023/10/01 07:19:46;;;;;;;14.90;6.25;;;;;;;15.68;100.00;102152.97;5112082;28;20055;-53
2023/10/01 07:22:15;;;;;;;13.57;6.07;;;;;;;15.82;100.00;102161.84;5112281;28;20577;-55
2023/10/01 07:24:44;;;;;;;13.30;5.53;;;;;;;16.01;100.00;102151.69;5110211;28;20072;-53
2023/10/01 07:27:12;;;;;;;13.88;6.30;;;;;;;16.33;100.00;102156.63;5106391;28;20137;-52
2023/10/01 07:29:42;;;;;;;12.98;6.03;;;;;;;16.33;100.00;102153.09;5111339;28;20039;-54
2023/10/01 07:32:13;;;;;;;15.93;6.78;;;;;;;16.50;100.00;102152.78;5112134;28;20502;-52
2023/10/01 07:34:48;;;;;;;14.98;6.85;;;;;;;16.63;100.00;102157.22;5112085;28;20035;-53
2023/10/01 07:37:25;;;;;;;15.55;6.60;;;;;;;16.80;100.00;102161.38;5111824;28;20051;-53
2023/10/01 07:39:55;;;;;;;14.52;6.15;;;;;;;17.06;100.00;102163.03;5108270;28;20047;-53
2023/10/01 07:42:25;;;;;;;14.55;6.25;;;;;;;17.21;100.00;102158.41;5107843;28;20051;-55
2023/10/01 07:44:54;;;;;;;15.60;6.18;;;;;;;17.34;100.00;102161.03;5112060;28;20047;-55
2023/10/01 07:47:32;;;;;;;15.05;6.35;;;;;;;17.33;100.00;102159.34;5112241;28;20557;-51
2023/10/01 07:50:12;;;;;;;15.25;6.40;;;;;;;17.62;100.00;102163.47;5116310;28;20043;-52
2023/10/01 07:52:41;;;;;;;14.45;6.55;;;;;;;17.95;100.00;102165.44;5114530;28;20059;-54
2023/10/01 07:57:52;;;;;;;12.93;5.90;;;;;;;18.10;100.00;102173.22;5114155;28;20047;-55
2023/10/01 08:00:26;;;;;;;15.85;6.45;;;;;;;18.45;100.00;102177.63;5112651;28;20054;-54
2023/10/01 08:05:41;;;;;;;13.10;6.00;;;;;;;18.61;100.00;102185.28;5112896;28;20055;-53
2023/10/01 08:08:08;;;;;;;18.35;7.03;;;;;;;18.82;100.00;102196.91;5112853;28;20447;-54
2023/10/01 08:10:37;;;;;;;13.73;6.50;;;;;;;18.85;100.00;102199.31;5113615;28;20084;-52
2023/10/01 08:13:07;;;;;;;12.98;6.35;;;;;;;19.26;100.00;102207.69;5115790;28;20058;-53
2023/10/01 08:15:39;;;;;;;14.00;6.35;;;;;;;19.55;100.00;102201.78;5112875;28;20131;-55
2023/10/01 08:21:02;;;;;;;12.23;6.18;;;;;;;19.96;100.00;102199.38;5115651;28;20046;-53
2023/10/01 08:23:31;;;;;;;16.52;6.95;;;;;;;20.02;100.00;102191.69;5115686;28;20055;-53
2023/10/01 08:26:39;;;;;;;19.40;7.30;;;;;;;19.77;100.00;102191.06;5111277;28;20043;-55
2023/10/01 08:28:56;;;;;;;15.80;6.32;;;;;;;19.76;100.00;102186.69;5113320;28;20046;-53
2023/10/01 08:34:28;;;;;;;16.75;7.75;;;;;;;19.93;100.00;102189.78;5115144;28;20506;-54
2023/10/01 08:37:06;;;;;;;16.52;7.70;;;;;;;19.99;100.00;102178.59;5115303;28;20128;-52
2023/10/01 08:39:35;;;;;;;18.45;7.80;;;;;;;20.06;100.00;102186.94;5115378;28;20047;-54
2023/10/01 08:42:08;;;;;;;17.55;7.32;;;;;;;20.27;100.00;102170.91;5113978;28;20058;-54
2023/10/01 08:44:47;;;;;;;;;;;;;;;20.22;100.00;102163.28;5116209;28;20055;-51
2023/10/01 08:47:34;;;;;;;18.60;7.93;;;;;;;20.42;100.00;102160.72;5115307;28;19919;-54
2023/10/01 08:50:26;;;;;;;15.68;8.00;;;;;;;20.47;100.00;102165.69;5115413;28;20040;-53
2023/10/01 08:53:01;;;;;;;16.77;8.10;;;;;;;20.65;100.00;102177.41;5115422;28;20466;-53
2023/10/01 08:55:39;;;;;;;16.58;7.97;;;;;;;20.72;100.00;102183.09;5114750;28;20479;-54
2023/10/01 08:58:15;;;;;;;16.98;8.30;;;;;;;21.02;100.00;102178.72;5114797;28;20040;-52
2023/10/01 09:00:49;;;;;;;16.98;8.38;;;;;;;21.19;100.00;102167.34;5114903;28;20052;-53
2023/10/01 09:03:28;;;;;;;19.35;8.93;;;;;;;21.10;100.00;102169.03;5114650;28;20071;-52
2023/10/01 09:06:05;;;;;;;15.57;8.15;;;;;;;21.08;100.00;102172.84;5114873;28;20043;-53
2023/10/01 09:08:43;;;;;;;19.08;8.43;;;;;;;21.16;100.00;102164.97;5114581;28;20071;-53
2023/10/01 09:11:14;;;;;;;15.48;8.00;;;;;;;21.17;100.00;102165.81;5114707;28;20410;-52
2023/10/01 09:13:47;;;;;;;18.95;8.80;;;;;;;21.43;100.00;102168.78;5114692;28;20506;-53
2023/10/01 09:16:16;;;;;;;17.00;7.68;;;;;;;21.54;100.00;102167.84;5114420;28;20442;-53
2023/10/01 09:19:05;;;;;;;17.23;8.02;;;;;;;21.76;100.00;102162.22;5114618;28;20130;-52
2023/10/01 09:21:38;;;;;;;18.42;7.93;;;;;;;21.70;100.00;102164.63;5114494;27;20502;-54
2023/10/01 09:24:38;;;;;;;17.08;7.95;;;;;;;21.95;100.00;102160.50;5114626;28;20050;-55
2023/10/01 09:27:18;;;;;;;15.45;7.50;;;;;;;22.03;100.00;102168.69;5114662;28;20097;-56
2023/10/01 09:29:56;;;;;;;18.13;8.18;;;;;;;21.84;100.00;102171.38;5114538;28;20126;-54
2023/10/01 09:32:49;;;;;;;15.48;7.60;;;;;;;21.74;100.00;102166.03;5114359;27;20136;-53
2023/10/01 09:35:30;;;;;;;15.05;7.05;;;;;;;22.04;100.00;102167.66;5114503;28;20050;-55
2023/10/01 09:38:10;;;;;;;14.90;7.18;;;;;;;22.24;100.00;102173.84;5114005;28;20502;-52
2023/10/01 09:40:42;;;;;;;15.52;7.28;;;;;;;22.39;100.00;102168.06;5114015;28;20637;-55
2023/10/01 09:43:19;;;;;;;15.90;7.03;;;;;;;22.26;100.00;102179.03;5113691;28;20122;-54
2023/10/01 09:45:49;;;;;;;15.52;7.43;;;;;;;22.26;100.00;102168.34;5113627;28;20451;-55
2023/10/01 09:48:36;;;;;;;15.55;7.45;;;;;;;22.32;100.00;102164.22;5110852;28;20047;-55
2023/10/01 09:51:09;;;;;;;14.07;7.55;;;;;;;22.50;100.00;102172.41;5113010;28;20496;-53
2023/10/01 09:53:44;;;;;;;15.52;7.13;;;;;;;22.53;100.00;102180.13;5112726;28;20582;-55
2023/10/01 09:56:25;;;;;;;16.45;6.80;;;;;;;22.76;100.00;102173.41;5112520;28;20521;-54
2023/10/01 09:58:58;;;;;;;16.17;7.55;;;;;;;22.76;100.00;102162.66;5112110;28;20074;-56
2023/10/01 10:01:28;;;;;;;16.15;6.93;;;;;;;23.04;100.00;102165.38;5110137;27;20529;-54
2023/10/01 10:04:01;;;;;;;14.93;6.80;;;;;;;23.25;100.00;102164.28;5113230;28;20391;-53
2023/10/01 10:06:31;;;;;;;16.10;7.60;;;;;;;23.24;100.00;102163.41;5114039;28;20044;-55
2023/10/01 10:09:06;;;;;;;15.88;6.82;;;;;;;23.32;100.00;102168.03;5113868;27;20056;-54
2023/10/01 10:11:38;;;;;;;16.00;7.57;;;;;;;23.13;100.00;102163.63;5110754;28;20041;-54
2023/10/01 10:14:40;;;;;;;15.27;6.80;;;;;;;23.49;100.00;102168.19;5109934;28;20477;-54
2023/10/01 10:17:18;;;;;;;16.65;7.30;;;;;;;23.60;100.00;102165.25;5110064;28;20514;-54
2023/10/01 10:20:25;;;;;;;15.27;7.38;;;;;;;23.94;100.00;102152.00;5111840;28;20086;-55
2023/10/01 10:23:13;;;;;;;15.60;7.00;;;;;;;24.01;100.00;102164.78;5110511;28;20392;-54
2023/10/01 10:25:43;;;;;;;14.95;7.40;;;;;;;24.34;100.00;102152.41;5110619;28;20057;-54
2023/10/01 10:28:24;;;;;;;15.40;6.85;;;;;;;24.42;100.00;102154.31;5113462;28;20101;-54
2023/10/01 10:31:29;;;;;;;17.25;7.13;;;;;;;24.42;100.00;102152.44;5113267;28;20122;-55
2023/10/01 10:34:24;;;;;;;16.45;6.93;;;;;;;24.71;100.00;102158.50;5113209;28;20048;-55
2023/10/01 10:36:57;;;;;;;19.05;6.97;;;;;;;25.02;100.00;102163.28;5113049;28;20057;-54
2023/10/01 10:40:26;;;;;;;15.88;7.07;;;;;;;25.37;100.00;102153.31;5112742;28;20047;-53
2023/10/01 10:43:18;;;;;;;16.65;7.07;;;;;;;24.74;100.00;102150.94;5109272;28;20131;-52
2023/10/01 10:46:06;;;;;;;17.40;7.50;;;;;;;25.35;100.00;102145.41;5110066;28;20106;-52
2023/10/01 10:49:00;;;;;;;15.00;6.80;;;;;;;25.56;100.00;102142.19;5110498;28;20044;-54
2023/10/01 10:51:48;;;;;;;18.27;6.75;;;;;;;25.86;100.00;102136.31;5112780;28;20503;-54
2023/10/01 10:54:29;;;;;;;14.90;6.90;;;;;;;25.46;100.00;102131.59;5108120;28;20092;-54
2023/10/01 10:56:59;;;;;;;13.82;6.40;;;;;;;25.61;100.00;102122.88;5109003;28;20048;-53
2023/10/01 10:59:34;;;;;;;15.93;7.15;;;;;;;25.63;100.00;102123.50;5112914;28;20054;-53
2023/10/01 11:02:03;;;;;;;14.15;6.70;;;;;;;25.77;100.00;102128.22;5112426;28;20514;-53
2023/10/01 11:04:31;;;;;;;16.35;7.55;;;;;;;25.71;100.00;102126.22;5112432;28;20108;-54
2023/10/01 11:07:04;;;;;;;15.80;6.97;;;;;;;25.41;100.00;102130.41;5112552;28;20123;-53
2023/10/01 11:09:33;;;;;;;;;;;;;;;25.27;100.00;102123.81;5113099;28;20044;-53
2023/10/01 11:12:07;;;;;;;16.52;7.22;;;;;;;25.18;100.00;102124.81;5111246;28;19924;-53
2023/10/01 11:14:42;;;;;;;16.50;7.03;;;;;;;25.91;100.00;102115.91;5112669;28;20502;-54
2023/10/01 11:17:13;;;;;;;14.30;6.72;;;;;;;26.28;95.14;102114.50;5112079;28;20087;-53
2023/10/01 11:19:47;;;;;;;16.23;7.78;;;;;;;26.74;95.41;102116.53;5112197;28;20055;-54
2023/10/01 11:22:18;;;;;;;13.32;6.72;;;;;;;26.86;94.03;102113.44;5110826;28;20055;-53
2023/10/01 11:24:47;;;;;;;14.43;7.00;;;;;;;26.83;91.50;102114.63;5112337;28;20509;-53
2023/10/01 11:27:19;;;;;;;15.77;7.63;;;;;;;27.21;90.96;102111.19;5112138;28;20040;-53
2023/10/01 11:30:12;;;;;;;15.18;7.35;;;;;;;26.92;94.12;102110.03;5112453;28;20043;-53
2023/10/01 11:33:13;;;;;;;14.50;6.93;;;;;;;27.20;89.42;102101.41;5112465;28;20040;-54
2023/10/01 11:36:06;;;;;;;16.40;7.45;;;;;;;27.02;90.69;102099.00;5112235;28;20097;-54
2023/10/01 11:38:38;;;;;;;15.48;6.95;;;;;;;27.24;89.13;102102.72;5109310;28;20074;-52
2023/10/01 11:41:07;;;;;;;14.38;6.45;;;;;;;27.57;88.02;102097.94;5107554;28;20131;-52
2023/10/01 11:43:42;;;;;;;13.60;6.25;;;;;;;27.91;85.02;102093.03;5108457;28;20418;-51
2023/10/01 11:46:23;;;;;;;15.02;6.63;;;;;;;27.86;84.26;102085.47;5108775;28;20043;-54
2023/10/01 11:48:57;;;;;;;15.93;7.07;;;;;;;28.18;84.79;102078.03;5109607;28;20448;-53
2023/10/01 11:51:45;;;;;;;13.57;6.47;;;;;;;28.42;84.56;102085.00;5112038;28;20424;-53
2023/10/01 11:54:15;;;;;;;13.45;6.50;;;;;;;28.22;81.99;102089.34;5110837;28;20100;-54
2023/10/01 11:56:46;;;;;;;13.02;5.88;;;;;;;28.58;83.39;102080.41;5112074;28;20471;-52
2023/10/01 11:59:19;;;;;;;12.65;6.88;;;;;;;28.15;85.53;102082.00;5111844;28;20122;-52
2023/10/01 12:01:51;;;;;;;13.48;6.07;;;;;;;28.65;82.91;102086.78;5111737;28;20421;-54
2023/10/01 12:07:15;;;;;;;13.02;6.20;;;;;;;29.17;78.00;102074.81;5105088;28;20055;-53